sensor_id;sensor_type;location;lat;lon;timestamp;temperature;humidity
20081;DHT22;10200;49.232;9.222;2023-03-03T00:02:03;4.20;99.50
20081;DHT22;10200;49.232;9.222;2023-03-03T00:04:29;4.20;99.90
20081;DHT22;10200;49.232;9.222;2023-03-03T00:06:54;4.10;99.90
20081;DHT22;10200;49.232;9.222;2023-03-03T00:09:20;4.10;99.90
20081;DHT22;10200;49.232;9.222;2023-03-03T00:11:54;4.10;99.90
20081;DHT22;10200;49.232;9.222;2023-03-03T00:14:31;4.00;99.90
20081;DHT22;10200;49.232;9.222;2023-03-03T00:17:00;3.90;99.90
20081;DHT22;10200;49.232;9.222;2023-03-03T00:19:26;3.90;99.90
20081;DHT22;10200;49.232;9.222;2023-03-03T00:21:52;3.90;99.90
20081;DHT22;10200;49.232;9.222;2023-03-03T00:26:55;3.70;99.90
20081;DHT22;10200;49.232;9.222;2023-03-03T00:31:53;3.70;99.90
20081;DHT22;10200;49.232;9.222;2023-03-03T00:34:28;3.60;99.90
20081;DHT22;10200;49.232;9.222;2023-03-03T00:36:56;3.60;99.90
20081;DHT22;10200;49.232;9.222;2023-03-03T00:39:32;3.60;99.90
20081;DHT22;10200;49.232;9.222;2023-03-03T00:41:59;3.60;99.90
20081;DHT22;10200;49.232;9.222;2023-03-03T00:44:48;3.50;99.90
20081;DHT22;10200;49.232;9.222;2023-03-03T00:47:36;3.50;99.90
20081;DHT22;10200;49.232;9.222;2023-03-03T00:52:36;3.50;99.90
20081;DHT22;10200;49.232;9.222;2023-03-03T00:55:04;3.40;99.90
20081;DHT22;10200;49.232;9.222;2023-03-03T00:57:29;3.40;99.90
20081;DHT22;10200;49.232;9.222;2023-03-03T00:59:55;3.30;99.90
20081;DHT22;10200;49.232;9.222;2023-03-03T01:02:21;3.20;99.90
20081;DHT22;10200;49.232;9.222;2023-03-03T01:04:50;3.20;99.90
20081;DHT22;10200;49.232;9.222;2023-03-03T01:07:16;3.10;99.90
20081;DHT22;10200;49.232;9.222;2023-03-03T01:09:42;3.10;99.90
20081;DHT22;10200;49.232;9.222;2023-03-03T01:12:09;3.10;99.90
20081;DHT22;10200;49.232;9.222;2023-03-03T01:14:34;3.10;99.90
20081;DHT22;10200;49.232;9.222;2023-03-03T01:17:00;3.10;99.90
20081;DHT22;10200;49.232;9.222;2023-03-03T01:19:26;3.10;99.90
20081;DHT22;10200;49.232;9.222;2023-03-03T01:21:52;3.00;99.90
20081;DHT22;10200;49.232;9.222;2023-03-03T01:24:17;3.00;99.90
20081;DHT22;10200;49.232;9.222;2023-03-03T01:26:43;3.00;99.90
20081;DHT22;10200;49.232;9.222;2023-03-03T01:29:09;2.90;99.90
20081;DHT22;10200;49.232;9.222;2023-03-03T01:31:34;2.90;99.90
20081;DHT22;10200;49.232;9.222;2023-03-03T01:34:00;2.90;99.90
20081;DHT22;10200;49.232;9.222;2023-03-03T01:36:27;2.80;99.90
20081;DHT22;10200;49.232;9.222;2023-03-03T01:38:53;2.80;99.90
20081;DHT22;10200;49.232;9.222;2023-03-03T01:41:19;2.70;99.90
20081;DHT22;10200;49.232;9.222;2023-03-03T01:43:48;2.70;99.90
20081;DHT22;10200;49.232;9.222;2023-03-03T01:46:47;2.70;99.90
20081;DHT22;10200;49.232;9.222;2023-03-03T01:49:18;2.70;99.90
20081;DHT22;10200;49.232;9.222;2023-03-03T01:51:55;2.60;99.90
20081;DHT22;10200;49.232;9.222;2023-03-03T01:54:44;2.60;99.90
20081;DHT22;10200;49.232;9.222;2023-03-03T01:57:17;2.60;99.90
20081;DHT22;10200;49.232;9.222;2023-03-03T01:59:48;2.50;99.90
20081;DHT22;10200;49.232;9.222;2023-03-03T02:02:15;2.50;99.90
20081;DHT22;10200;49.232;9.222;2023-03-03T02:04:41;2.50;99.90
20081;DHT22;10200;49.232;9.222;2023-03-03T02:07:09;2.50;99.90
20081;DHT22;10200;49.232;9.222;2023-03-03T02:10:10;2.50;99.90
20081;DHT22;10200;49.232;9.222;2023-03-03T02:15:30;2.40;99.90
20081;DHT22;10200;49.232;9.222;2023-03-03T02:18:05;2.40;99.90
20081;DHT22;10200;49.232;9.222;2023-03-03T02:20:43;2.40;99.90
20081;DHT22;10200;49.232;9.222;2023-03-03T02:23:30;2.40;99.90
20081;DHT22;10200;49.232;9.222;2023-03-03T02:26:04;2.30;99.90
20081;DHT22;10200;49.232;9.222;2023-03-03T02:28:32;2.30;99.90
20081;DHT22;10200;49.232;9.222;2023-03-03T02:31:00;2.20;99.90
20081;DHT22;10200;49.232;9.222;2023-03-03T02:33:26;2.20;99.90
20081;DHT22;10200;49.232;9.222;2023-03-03T02:35:52;2.20;99.90
20081;DHT22;10200;49.232;9.222;2023-03-03T02:41:29;2.20;99.90
20081;DHT22;10200;49.232;9.222;2023-03-03T02:43:58;2.20;99.90
20081;DHT22;10200;49.232;9.222;2023-03-03T02:46:25;2.20;99.90
20081;DHT22;10200;49.232;9.222;2023-03-03T02:48:51;2.20;99.90
20081;DHT22;10200;49.232;9.222;2023-03-03T02:51:16;2.20;99.90
20081;DHT22;10200;49.232;9.222;2023-03-03T02:53:42;2.10;99.90
20081;DHT22;10200;49.232;9.222;2023-03-03T02:56:08;2.10;99.90
20081;DHT22;10200;49.232;9.222;2023-03-03T02:58:34;2.10;99.90
20081;DHT22;10200;49.232;9.222;2023-03-03T03:01:00;2.00;99.90
20081;DHT22;10200;49.232;9.222;2023-03-03T03:03:25;2.00;99.90
20081;DHT22;10200;49.232;9.222;2023-03-03T03:05:51;2.00;99.90
20081;DHT22;10200;49.232;9.222;2023-03-03T03:08:17;2.00;99.90
20081;DHT22;10200;49.232;9.222;2023-03-03T03:10:42;1.90;99.90
20081;DHT22;10200;49.232;9.222;2023-03-03T03:13:08;1.90;99.90
20081;DHT22;10200;49.232;9.222;2023-03-03T03:15:35;1.90;99.90
20081;DHT22;10200;49.232;9.222;2023-03-03T03:18:00;1.90;99.90
20081;DHT22;10200;49.232;9.222;2023-03-03T03:20:26;1.90;99.90
20081;DHT22;10200;49.232;9.222;2023-03-03T03:22:52;1.80;99.90
20081;DHT22;10200;49.232;9.222;2023-03-03T03:25:17;1.80;99.90
20081;DHT22;10200;49.232;9.222;2023-03-03T03:27:43;1.80;99.90
20081;DHT22;10200;49.232;9.222;2023-03-03T03:30:09;1.80;99.90
20081;DHT22;10200;49.232;9.222;2023-03-03T03:32:34;1.70;99.90
20081;DHT22;10200;49.232;9.222;2023-03-03T03:35:00;1.70;99.90
20081;DHT22;10200;49.232;9.222;2023-03-03T03:37:26;1.80;99.90
20081;DHT22;10200;49.232;9.222;2023-03-03T03:39:52;1.70;99.90
20081;DHT22;10200;49.232;9.222;2023-03-03T03:42:18;1.70;99.90
20081;DHT22;10200;49.232;9.222;2023-03-03T03:44:44;1.70;99.90
20081;DHT22;10200;49.232;9.222;2023-03-03T03:47:09;1.60;99.90
20081;DHT22;10200;49.232;9.222;2023-03-03T03:49:35;1.60;99.90
20081;DHT22;10200;49.232;9.222;2023-03-03T03:52:01;1.60;99.90
20081;DHT22;10200;49.232;9.222;2023-03-03T03:54:26;1.70;99.90
20081;DHT22;10200;49.232;9.222;2023-03-03T03:56:52;1.70;99.90
20081;DHT22;10200;49.232;9.222;2023-03-03T03:59:19;1.70;99.90
20081;DHT22;10200;49.232;9.222;2023-03-03T04:01:44;1.70;99.90
20081;DHT22;10200;49.232;9.222;2023-03-03T04:04:10;1.70;99.90
20081;DHT22;10200;49.232;9.222;2023-03-03T04:06:36;1.70;99.90
20081;DHT22;10200;49.232;9.222;2023-03-03T04:09:03;1.70;99.90
20081;DHT22;10200;49.232;9.222;2023-03-03T04:11:29;1.70;99.90
20081;DHT22;10200;49.232;9.222;2023-03-03T04:13:54;1.60;99.90
20081;DHT22;10200;49.232;9.222;2023-03-03T04:16:20;1.60;99.90
20081;DHT22;10200;49.232;9.222;2023-03-03T04:18:45;1.60;99.90
20081;DHT22;10200;49.232;9.222;2023-03-03T04:21:12;1.60;99.90
20081;DHT22;10200;49.232;9.222;2023-03-03T04:23:38;1.50;99.90
20081;DHT22;10200;49.232;9.222;2023-03-03T04:26:04;1.50;99.90
20081;DHT22;10200;49.232;9.222;2023-03-03T04:28:29;1.50;99.90
20081;DHT22;10200;49.232;9.222;2023-03-03T04:30:55;1.50;99.90
20081;DHT22;10200;49.232;9.222;2023-03-03T04:33:20;1.50;99.90
20081;DHT22;10200;49.232;9.222;2023-03-03T04:35:46;1.50;99.90
20081;DHT22;10200;49.232;9.222;2023-03-03T04:38:12;1.40;99.90
20081;DHT22;10200;49.232;9.222;2023-03-03T04:40:40;1.40;99.90
20081;DHT22;10200;49.232;9.222;2023-03-03T04:43:06;1.40;99.90
20081;DHT22;10200;49.232;9.222;2023-03-03T04:45:31;1.50;99.90
20081;DHT22;10200;49.232;9.222;2023-03-03T04:47:57;1.40;99.90
20081;DHT22;10200;49.232;9.222;2023-03-03T04:50:22;1.40;99.90
20081;DHT22;10200;49.232;9.222;2023-03-03T04:52:48;1.30;99.90
20081;DHT22;10200;49.232;9.222;2023-03-03T04:55:14;1.20;99.90
20081;DHT22;10200;49.232;9.222;2023-03-03T04:57:41;1.20;99.90
20081;DHT22;10200;49.232;9.222;2023-03-03T05:00:08;1.20;99.90
20081;DHT22;10200;49.232;9.222;2023-03-03T05:02:34;1.20;99.90
20081;DHT22;10200;49.232;9.222;2023-03-03T05:04:59;1.10;99.90
20081;DHT22;10200;49.232;9.222;2023-03-03T05:07:25;1.10;99.90
20081;DHT22;10200;49.232;9.222;2023-03-03T05:09:50;1.10;99.90
20081;DHT22;10200;49.232;9.222;2023-03-03T05:12:17;1.10;99.90
20081;DHT22;10200;49.232;9.222;2023-03-03T05:14:42;1.00;99.90
20081;DHT22;10200;49.232;9.222;2023-03-03T05:17:08;1.00;99.90
20081;DHT22;10200;49.232;9.222;2023-03-03T05:19:34;1.00;99.90
20081;DHT22;10200;49.232;9.222;2023-03-03T05:21:59;1.00;99.90
20081;DHT22;10200;49.232;9.222;2023-03-03T05:24:26;0.90;99.90
20081;DHT22;10200;49.232;9.222;2023-03-03T05:26:52;0.90;99.90
20081;DHT22;10200;49.232;9.222;2023-03-03T05:29:18;0.90;99.90
20081;DHT22;10200;49.232;9.222;2023-03-03T05:31:43;0.90;99.90
20081;DHT22;10200;49.232;9.222;2023-03-03T05:34:09;0.90;99.90
20081;DHT22;10200;49.232;9.222;2023-03-03T05:36:35;0.80;99.90
20081;DHT22;10200;49.232;9.222;2023-03-03T05:39:00;0.80;99.90
20081;DHT22;10200;49.232;9.222;2023-03-03T05:41:27;0.80;99.90
20081;DHT22;10200;49.232;9.222;2023-03-03T05:43:52;0.80;99.90
20081;DHT22;10200;49.232;9.222;2023-03-03T05:46:19;0.80;99.90
20081;DHT22;10200;49.232;9.222;2023-03-03T05:48:44;0.80;99.90
20081;DHT22;10200;49.232;9.222;2023-03-03T05:51:10;0.90;99.90
20081;DHT22;10200;49.232;9.222;2023-03-03T05:53:35;0.90;99.90
20081;DHT22;10200;49.232;9.222;2023-03-03T05:56:01;0.90;99.90
20081;DHT22;10200;49.232;9.222;2023-03-03T05:58:27;0.90;99.90
20081;DHT22;10200;49.232;9.222;2023-03-03T06:00:53;0.90;99.90
20081;DHT22;10200;49.232;9.222;2023-03-03T06:03:18;0.90;99.90
20081;DHT22;10200;49.232;9.222;2023-03-03T06:05:44;0.90;99.90
20081;DHT22;10200;49.232;9.222;2023-03-03T06:08:10;0.90;99.90
20081;DHT22;10200;49.232;9.222;2023-03-03T06:10:35;0.90;99.90
20081;DHT22;10200;49.232;9.222;2023-03-03T06:13:01;0.90;99.90
20081;DHT22;10200;49.232;9.222;2023-03-03T06:15:27;0.90;99.90
20081;DHT22;10200;49.232;9.222;2023-03-03T06:17:52;0.90;99.90
20081;DHT22;10200;49.232;9.222;2023-03-03T06:20:18;0.90;99.90
20081;DHT22;10200;49.232;9.222;2023-03-03T06:22:44;0.90;99.90
20081;DHT22;10200;49.232;9.222;2023-03-03T06:25:09;0.90;99.90
20081;DHT22;10200;49.232;9.222;2023-03-03T06:27:35;1.00;99.90
20081;DHT22;10200;49.232;9.222;2023-03-03T06:30:02;1.00;99.90
20081;DHT22;10200;49.232;9.222;2023-03-03T06:32:29;1.10;99.90
20081;DHT22;10200;49.232;9.222;2023-03-03T06:34:54;1.10;99.90
20081;DHT22;10200;49.232;9.222;2023-03-03T06:37:20;1.10;99.90
20081;DHT22;10200;49.232;9.222;2023-03-03T06:39:45;1.20;99.90
20081;DHT22;10200;49.232;9.222;2023-03-03T06:42:11;1.10;99.90
20081;DHT22;10200;49.232;9.222;2023-03-03T06:44:37;1.20;99.90
20081;DHT22;10200;49.232;9.222;2023-03-03T06:47:02;1.20;99.90
20081;DHT22;10200;49.232;9.222;2023-03-03T06:49:28;1.30;99.90
20081;DHT22;10200;49.232;9.222;2023-03-03T06:51:53;1.40;99.90
20081;DHT22;10200;49.232;9.222;2023-03-03T06:54:23;1.70;99.90
20081;DHT22;10200;49.232;9.222;2023-03-03T06:56:57;2.20;99.90
20081;DHT22;10200;49.232;9.222;2023-03-03T06:59:23;3.10;99.90
20081;DHT22;10200;49.232;9.222;2023-03-03T07:01:51;4.10;99.90
20081;DHT22;10200;49.232;9.222;2023-03-03T07:04:28;5.00;99.90
20081;DHT22;10200;49.232;9.222;2023-03-03T07:07:07;5.90;99.90
20081;DHT22;10200;49.232;9.222;2023-03-03T07:09:35;6.70;96.60
20081;DHT22;10200;49.232;9.222;2023-03-03T07:12:09;7.40;93.20
20081;DHT22;10200;49.232;9.222;2023-03-03T07:14:42;7.90;92.30
20081;DHT22;10200;49.232;9.222;2023-03-03T07:17:19;8.30;88.10
20081;DHT22;10200;49.232;9.222;2023-03-03T07:19:45;8.70;84.10
20081;DHT22;10200;49.232;9.222;2023-03-03T07:22:15;9.20;80.30
20081;DHT22;10200;49.232;9.222;2023-03-03T07:24:43;9.50;79.40
20081;DHT22;10200;49.232;9.222;2023-03-03T07:29:42;10.10;74.00
20081;DHT22;10200;49.232;9.222;2023-03-03T07:32:38;10.50;72.60
20081;DHT22;10200;49.232;9.222;2023-03-03T07:35:38;10.80;70.50
20081;DHT22;10200;49.232;9.222;2023-03-03T07:40:52;11.20;65.60
20081;DHT22;10200;49.232;9.222;2023-03-03T07:45:46;11.50;62.70
20081;DHT22;10200;49.232;9.222;2023-03-03T07:50:39;11.70;61.10
20081;DHT22;10200;49.232;9.222;2023-03-03T07:53:14;11.80;58.70
20081;DHT22;10200;49.232;9.222;2023-03-03T07:55:45;11.90;59.50
20081;DHT22;10200;49.232;9.222;2023-03-03T08:03:41;12.00;58.70
20081;DHT22;10200;49.232;9.222;2023-03-03T08:08:55;12.20;57.90
20081;DHT22;10200;49.232;9.222;2023-03-03T08:11:24;12.30;57.40
20081;DHT22;10200;49.232;9.222;2023-03-03T08:13:49;12.40;56.50
20081;DHT22;10200;49.232;9.222;2023-03-03T08:18:52;12.10;56.30
20081;DHT22;10200;49.232;9.222;2023-03-03T08:21:22;12.10;56.20
20081;DHT22;10200;49.232;9.222;2023-03-03T08:23:48;12.20;56.40
20081;DHT22;10200;49.232;9.222;2023-03-03T08:26:16;12.30;56.50
20081;DHT22;10200;49.232;9.222;2023-03-03T08:28:42;12.40;55.90
20081;DHT22;10200;49.232;9.222;2023-03-03T08:31:07;12.50;56.40
20081;DHT22;10200;49.232;9.222;2023-03-03T08:33:33;12.20;55.30
20081;DHT22;10200;49.232;9.222;2023-03-03T08:35:59;12.20;56.60
20081;DHT22;10200;49.232;9.222;2023-03-03T08:38:24;12.30;56.60
20081;DHT22;10200;49.232;9.222;2023-03-03T08:40:50;12.40;56.90
20081;DHT22;10200;49.232;9.222;2023-03-03T08:43:16;12.50;56.90
20081;DHT22;10200;49.232;9.222;2023-03-03T08:45:47;12.70;56.70
20081;DHT22;10200;49.232;9.222;2023-03-03T08:48:13;12.80;56.20
20081;DHT22;10200;49.232;9.222;2023-03-03T08:50:39;12.80;55.90
20081;DHT22;10200;49.232;9.222;2023-03-03T08:53:06;13.00;56.40
20081;DHT22;10200;49.232;9.222;2023-03-03T08:55:32;13.10;56.00
20081;DHT22;10200;49.232;9.222;2023-03-03T08:57:57;13.20;56.10
20081;DHT22;10200;49.232;9.222;2023-03-03T09:00:23;13.20;54.80
20081;DHT22;10200;49.232;9.222;2023-03-03T09:02:49;13.00;55.40
20081;DHT22;10200;49.232;9.222;2023-03-03T09:05:16;12.90;55.80
20081;DHT22;10200;49.232;9.222;2023-03-03T09:07:43;12.70;54.30
20081;DHT22;10200;49.232;9.222;2023-03-03T09:10:11;12.50;55.30
20081;DHT22;10200;49.232;9.222;2023-03-03T09:12:42;12.30;55.50
20081;DHT22;10200;49.232;9.222;2023-03-03T09:15:16;11.90;56.30
20081;DHT22;10200;49.232;9.222;2023-03-03T09:17:42;11.50;57.10
20081;DHT22;10200;49.232;9.222;2023-03-03T09:22:58;11.10;58.70
20081;DHT22;10200;49.232;9.222;2023-03-03T09:25:35;10.90;59.00
20081;DHT22;10200;49.232;9.222;2023-03-03T09:28:02;10.90;60.00
20081;DHT22;10200;49.232;9.222;2023-03-03T09:30:38;10.90;59.20
20081;DHT22;10200;49.232;9.222;2023-03-03T09:35:45;10.80;60.80
20081;DHT22;10200;49.232;9.222;2023-03-03T09:38:34;10.70;60.30
20081;DHT22;10200;49.232;9.222;2023-03-03T09:41:48;10.30;59.80
20081;DHT22;10200;49.232;9.222;2023-03-03T09:47:08;9.70;63.20
20081;DHT22;10200;49.232;9.222;2023-03-03T09:52:39;9.40;63.40
20081;DHT22;10200;49.232;9.222;2023-03-03T09:58:37;9.10;65.30
20081;DHT22;10200;49.232;9.222;2023-03-03T10:20:35;8.90;68.00
20081;DHT22;10200;49.232;9.222;2023-03-03T10:23:23;9.00;67.70
20081;DHT22;10200;49.232;9.222;2023-03-03T10:34:24;8.90;68.60
20081;DHT22;10200;49.232;9.222;2023-03-03T10:42:10;9.20;69.00
20081;DHT22;10200;49.232;9.222;2023-03-03T10:44:42;9.30;68.70
20081;DHT22;10200;49.232;9.222;2023-03-03T10:55:35;9.40;67.70
20081;DHT22;10200;49.232;9.222;2023-03-03T11:06:05;9.60;66.40
20081;DHT22;10200;49.232;9.222;2023-03-03T11:09:02;9.50;66.50
20081;DHT22;10200;49.232;9.222;2023-03-03T11:11:35;9.40;66.90
20081;DHT22;10200;49.232;9.222;2023-03-03T11:14:27;9.50;66.60
20081;DHT22;10200;49.232;9.222;2023-03-03T11:32:00;9.70;67.60
20081;DHT22;10200;49.232;9.222;2023-03-03T11:37:23;9.80;66.70
20081;DHT22;10200;49.232;9.222;2023-03-03T11:39:55;9.80;66.70
20081;DHT22;10200;49.232;9.222;2023-03-03T11:45:16;9.80;66.70
20081;DHT22;10200;49.232;9.222;2023-03-03T11:50:30;9.90;66.20
20081;DHT22;10200;49.232;9.222;2023-03-03T11:55:48;9.90;67.00
20081;DHT22;10200;49.232;9.222;2023-03-03T11:58:28;9.90;66.80
20081;DHT22;10200;49.232;9.222;2023-03-03T12:01:06;9.90;66.70
20081;DHT22;10200;49.232;9.222;2023-03-03T12:06:55;9.90;65.80
20081;DHT22;10200;49.232;9.222;2023-03-03T12:10:02;9.90;66.10
20081;DHT22;10200;49.232;9.222;2023-03-03T12:12:35;10.00;66.20
20081;DHT22;10200;49.232;9.222;2023-03-03T12:21:09;10.10;66.20
20081;DHT22;10200;49.232;9.222;2023-03-03T12:26:38;10.40;87.80
20081;DHT22;10200;49.232;9.222;2023-03-03T12:29:21;10.50;68.90
20081;DHT22;10200;49.232;9.222;2023-03-03T12:48:16;10.50;64.90
20081;DHT22;10200;49.232;9.222;2023-03-03T12:51:10;10.50;64.40
20081;DHT22;10200;49.232;9.222;2023-03-03T13:08:24;10.80;66.70
20081;DHT22;10200;49.232;9.222;2023-03-03T13:16:16;10.90;69.50
20081;DHT22;10200;49.232;9.222;2023-03-03T13:21:26;11.00;72.00
20081;DHT22;10200;49.232;9.222;2023-03-03T13:24:23;11.10;73.20
20081;DHT22;10200;49.232;9.222;2023-03-03T13:26:59;11.10;73.40
20081;DHT22;10200;49.232;9.222;2023-03-03T13:32:19;11.10;73.60
20081;DHT22;10200;49.232;9.222;2023-03-03T13:37:46;11.30;73.40
20081;DHT22;10200;49.232;9.222;2023-03-03T13:42:49;11.30;73.80
20081;DHT22;10200;49.232;9.222;2023-03-03T13:48:02;11.40;74.00
20081;DHT22;10200;49.232;9.222;2023-03-03T13:50:36;11.40;72.60
20081;DHT22;10200;49.232;9.222;2023-03-03T13:56:20;11.30;71.30
20081;DHT22;10200;49.232;9.222;2023-03-03T14:04:42;11.40;69.80
20081;DHT22;10200;49.232;9.222;2023-03-03T14:10:25;11.50;69.60
20081;DHT22;10200;49.232;9.222;2023-03-03T14:13:07;11.40;70.40
20081;DHT22;10200;49.232;9.222;2023-03-03T14:15:54;11.50;70.00
20081;DHT22;10200;49.232;9.222;2023-03-03T14:21:42;11.50;68.90
20081;DHT22;10200;49.232;9.222;2023-03-03T14:26:21;11.50;67.00
20081;DHT22;10200;49.232;9.222;2023-03-03T14:28:48;11.50;67.40
20081;DHT22;10200;49.232;9.222;2023-03-03T14:31:26;11.60;67.60
20081;DHT22;10200;49.232;9.222;2023-03-03T14:37:43;11.50;66.80
20081;DHT22;10200;49.232;9.222;2023-03-03T14:45:33;11.60;66.60
20081;DHT22;10200;49.232;9.222;2023-03-03T14:48:10;11.60;68.10
20081;DHT22;10200;49.232;9.222;2023-03-03T14:50:42;11.50;60.30
20081;DHT22;10200;49.232;9.222;2023-03-03T14:53:30;11.50;62.90
20081;DHT22;10200;49.232;9.222;2023-03-03T14:55:53;12.10;60.50
20081;DHT22;10200;49.232;9.222;2023-03-03T14:58:32;11.50;60.00
20081;DHT22;10200;49.232;9.222;2023-03-03T15:01:32;11.60;60.00
20081;DHT22;10200;49.232;9.222;2023-03-03T15:04:06;11.50;60.80
20081;DHT22;10200;49.232;9.222;2023-03-03T15:09:37;11.60;60.60
20081;DHT22;10200;49.232;9.222;2023-03-03T15:12:34;11.60;60.30
20081;DHT22;10200;49.232;9.222;2023-03-03T15:18:17;11.60;60.00
20081;DHT22;10200;49.232;9.222;2023-03-03T15:20:51;11.60;59.90
20081;DHT22;10200;49.232;9.222;2023-03-03T15:41:57;11.50;59.70
20081;DHT22;10200;49.232;9.222;2023-03-03T15:49:54;11.50;59.60
20081;DHT22;10200;49.232;9.222;2023-03-03T15:52:35;11.40;59.80
20081;DHT22;10200;49.232;9.222;2023-03-03T16:03:16;11.30;59.90
20081;DHT22;10200;49.232;9.222;2023-03-03T16:06:00;11.20;60.00
20081;DHT22;10200;49.232;9.222;2023-03-03T16:09:02;11.20;60.10
20081;DHT22;10200;49.232;9.222;2023-03-03T16:14:37;11.10;60.30
20081;DHT22;10200;49.232;9.222;2023-03-03T16:17:27;11.00;60.40
20081;DHT22;10200;49.232;9.222;2023-03-03T16:20:00;11.00;60.50
20081;DHT22;10200;49.232;9.222;2023-03-03T16:22:37;10.90;60.60
20081;DHT22;10200;49.232;9.222;2023-03-03T16:25:12;10.90;60.50
20081;DHT22;10200;49.232;9.222;2023-03-03T16:28:02;10.90;60.70
20081;DHT22;10200;49.232;9.222;2023-03-03T16:46:47;10.50;61.60
20081;DHT22;10200;49.232;9.222;2023-03-03T16:54:32;10.30;62.30
20081;DHT22;10200;49.232;9.222;2023-03-03T17:05:10;10.00;63.20
20081;DHT22;10200;49.232;9.222;2023-03-03T17:07:41;9.90;63.60
20081;DHT22;10200;49.232;9.222;2023-03-03T17:20:54;9.60;65.10
20081;DHT22;10200;49.232;9.222;2023-03-03T17:24:03;9.60;65.50
20081;DHT22;10200;49.232;9.222;2023-03-03T17:27:03;9.50;65.90
20081;DHT22;10200;49.232;9.222;2023-03-03T17:38:50;9.00;67.80
20081;DHT22;10200;49.232;9.222;2023-03-03T17:41:23;8.90;68.60
20081;DHT22;10200;49.232;9.222;2023-03-03T17:46:43;8.60;69.30
20081;DHT22;10200;49.232;9.222;2023-03-03T17:51:57;8.50;69.80
20081;DHT22;10200;49.232;9.222;2023-03-03T17:57:24;8.30;69.80
20081;DHT22;10200;49.232;9.222;2023-03-03T18:21:42;7.70;72.90
20081;DHT22;10200;49.232;9.222;2023-03-03T18:24:25;7.70;73.20
20081;DHT22;10200;49.232;9.222;2023-03-03T18:26:53;7.60;73.20
20081;DHT22;10200;49.232;9.222;2023-03-03T18:29:27;7.60;74.00
20081;DHT22;10200;49.232;9.222;2023-03-03T18:37:42;7.40;74.40
20081;DHT22;10200;49.232;9.222;2023-03-03T18:42:39;7.30;74.90
20081;DHT22;10200;49.232;9.222;2023-03-03T18:48:10;7.20;75.80
20081;DHT22;10200;49.232;9.222;2023-03-03T18:50:47;7.20;76.10
20081;DHT22;10200;49.232;9.222;2023-03-03T18:53:26;7.20;76.10
20081;DHT22;10200;49.232;9.222;2023-03-03T18:56:03;7.10;76.40
20081;DHT22;10200;49.232;9.222;2023-03-03T18:58:41;7.10;76.60
20081;DHT22;10200;49.232;9.222;2023-03-03T19:06:30;6.90;77.70
20081;DHT22;10200;49.232;9.222;2023-03-03T19:08:57;6.80;77.10
20081;DHT22;10200;49.232;9.222;2023-03-03T19:11:41;6.70;77.70
20081;DHT22;10200;49.232;9.222;2023-03-03T19:16:42;6.60;78.20
20081;DHT22;10200;49.232;9.222;2023-03-03T19:19:11;6.50;78.70
20081;DHT22;10200;49.232;9.222;2023-03-03T19:21:38;6.40;79.20
20081;DHT22;10200;49.232;9.222;2023-03-03T19:30:10;6.20;79.80
20081;DHT22;10200;49.232;9.222;2023-03-03T19:47:37;5.80;81.60
20081;DHT22;10200;49.232;9.222;2023-03-03T19:59:16;5.70;83.60
20081;DHT22;10200;49.232;9.222;2023-03-03T20:07:28;5.60;84.10
20081;DHT22;10200;49.232;9.222;2023-03-03T20:10:32;5.60;84.70
20081;DHT22;10200;49.232;9.222;2023-03-03T20:18:21;5.50;85.60
20081;DHT22;10200;49.232;9.222;2023-03-03T20:34:18;5.20;87.40
20081;DHT22;10200;49.232;9.222;2023-03-03T20:37:05;5.20;87.90
20081;DHT22;10200;49.232;9.222;2023-03-03T20:56:31;4.80;90.60
20081;DHT22;10200;49.232;9.222;2023-03-03T21:04:24;4.70;91.40
20081;DHT22;10200;49.232;9.222;2023-03-03T21:06:50;4.60;91.70
20081;DHT22;10200;49.232;9.222;2023-03-03T21:09:28;4.60;91.80
20081;DHT22;10200;49.232;9.222;2023-03-03T21:11:54;4.60;91.80
20081;DHT22;10200;49.232;9.222;2023-03-03T21:14:23;4.60;92.20
20081;DHT22;10200;49.232;9.222;2023-03-03T21:16:57;4.50;92.30
20081;DHT22;10200;49.232;9.222;2023-03-03T21:19:31;4.40;92.40
20081;DHT22;10200;49.232;9.222;2023-03-03T21:21:59;4.40;92.70
20081;DHT22;10200;49.232;9.222;2023-03-03T21:24:47;4.40;93.30
20081;DHT22;10200;49.232;9.222;2023-03-03T21:30:07;4.30;94.10
20081;DHT22;10200;49.232;9.222;2023-03-03T21:35:09;4.20;95.50
20081;DHT22;10200;49.232;9.222;2023-03-03T21:37:53;4.20;95.00
20081;DHT22;10200;49.232;9.222;2023-03-03T21:40:25;4.20;95.90
20081;DHT22;10200;49.232;9.222;2023-03-03T21:42:52;4.20;96.30
20081;DHT22;10200;49.232;9.222;2023-03-03T21:45:18;4.30;96.70
20081;DHT22;10200;49.232;9.222;2023-03-03T21:47:48;4.20;96.30
20081;DHT22;10200;49.232;9.222;2023-03-03T21:50:15;4.20;96.50
20081;DHT22;10200;49.232;9.222;2023-03-03T21:52:40;4.20;97.00
20081;DHT22;10200;49.232;9.222;2023-03-03T21:55:06;4.10;97.00
20081;DHT22;10200;49.232;9.222;2023-03-03T21:57:32;4.10;97.10
20081;DHT22;10200;49.232;9.222;2023-03-03T22:00:00;4.10;96.60
20081;DHT22;10200;49.232;9.222;2023-03-03T22:02:25;4.00;97.10
20081;DHT22;10200;49.232;9.222;2023-03-03T22:04:51;4.00;97.30
20081;DHT22;10200;49.232;9.222;2023-03-03T22:07:17;3.90;97.70
20081;DHT22;10200;49.232;9.222;2023-03-03T22:09:42;3.90;98.00
20081;DHT22;10200;49.232;9.222;2023-03-03T22:12:08;3.80;97.90
20081;DHT22;10200;49.232;9.222;2023-03-03T22:14:33;3.80;98.70
20081;DHT22;10200;49.232;9.222;2023-03-03T22:16:59;3.70;99.00
20081;DHT22;10200;49.232;9.222;2023-03-03T22:19:25;3.60;99.40
20081;DHT22;10200;49.232;9.222;2023-03-03T22:21:50;3.60;99.50
20081;DHT22;10200;49.232;9.222;2023-03-03T22:24:16;3.50;99.90
20081;DHT22;10200;49.232;9.222;2023-03-03T22:26:42;3.50;99.90
20081;DHT22;10200;49.232;9.222;2023-03-03T22:29:08;3.50;99.90
20081;DHT22;10200;49.232;9.222;2023-03-03T22:31:35;3.50;99.90
20081;DHT22;10200;49.232;9.222;2023-03-03T22:34:01;3.50;99.90
20081;DHT22;10200;49.232;9.222;2023-03-03T22:36:26;3.40;99.90
20081;DHT22;10200;49.232;9.222;2023-03-03T22:38:52;3.40;99.90
20081;DHT22;10200;49.232;9.222;2023-03-03T22:41:18;3.30;99.90
20081;DHT22;10200;49.232;9.222;2023-03-03T22:43:43;3.30;99.90
20081;DHT22;10200;49.232;9.222;2023-03-03T22:46:09;3.20;99.90
20081;DHT22;10200;49.232;9.222;2023-03-03T22:48:36;3.20;99.90
20081;DHT22;10200;49.232;9.222;2023-03-03T22:51:01;3.20;99.90
20081;DHT22;10200;49.232;9.222;2023-03-03T22:53:27;3.20;99.90
20081;DHT22;10200;49.232;9.222;2023-03-03T22:55:53;3.20;99.90
20081;DHT22;10200;49.232;9.222;2023-03-03T22:58:19;3.10;99.90
20081;DHT22;10200;49.232;9.222;2023-03-03T23:00:46;3.10;99.90
20081;DHT22;10200;49.232;9.222;2023-03-03T23:03:12;3.00;99.90
20081;DHT22;10200;49.232;9.222;2023-03-03T23:05:38;3.00;99.90
20081;DHT22;10200;49.232;9.222;2023-03-03T23:08:06;2.90;99.90
20081;DHT22;10200;49.232;9.222;2023-03-03T23:10:32;2.90;99.90
20081;DHT22;10200;49.232;9.222;2023-03-03T23:12:58;2.90;99.90
20081;DHT22;10200;49.232;9.222;2023-03-03T23:15:23;2.90;99.90
20081;DHT22;10200;49.232;9.222;2023-03-03T23:17:49;2.80;99.90
20081;DHT22;10200;49.232;9.222;2023-03-03T23:20:18;2.80;99.90